Sandra J Banta — WDF3432 — position and weather

sailwx.info

Track history (hours):
 
Tides and Currents Weather Stations Pressure Air Temp Water Temp Dewpoint Dewpoint Depression Visibility Wind Speed Wind Dir Waves Ship Positions

Sandra J Banta

Owner: Chem Carriers Towing, LLC, Sunshine, LA. More information available from US FCC via Universal Licensing System and Coast Guard Vessel Documentation Center.

Last reported at 2018-Apr-21 06:07 UTC. Time now 2018-Apr-21 07:55 UTC.
Position N 29°13' W 095°02'.

MMSI: 367439810.

Date/timePositionNaut miles runAvg speedWind from/ knotsBaromVisibWave heightAir tempDewpointWater temp
2018-Apr-21 06:07N 29°13' W 095°02'2 6.1
2018-Apr-21 05:49N 29°15' W 095°01'7 5.6
2018-Apr-21 04:35N 29°17' W 094°53'6 7.4
2018-Apr-21 03:44N 29°22' W 094°48'2 8.1
2018-Apr-21 03:30N 29°24' W 094°49'4 7.8
2018-Apr-21 02:58N 29°27' W 094°51'3 7.2
2018-Apr-21 02:30N 29°30' W 094°53'3 6.8
2018-Apr-21 02:00N 29°33' W 094°55'4 7.2
2018-Apr-21 01:30N 29°36' W 094°57'4 7.6
2018-Apr-21 01:01N 29°40' W 094°59'4 7.3
2018-Apr-21 00:31N 29°43' W 095°01'3 6.8
2018-Apr-21 00:00N 29°45' W 095°04'2 4.9
2018-Apr-20 23:30N 29°47' W 095°06'0 0.2
2018-Apr-20 22:57N 29°47' W 095°06'1 2.5
2018-Apr-20 22:30N 29°46' W 095°06'0 0.0
2018-Apr-20 22:01N 29°46' W 095°06'0 0.0
2018-Apr-20 21:30N 29°46' W 095°06'0 0.0
2018-Apr-20 21:01N 29°46' W 095°06'0 0.0
2018-Apr-20 20:30N 29°46' W 095°06'1 0.6
2018-Apr-20 18:48N 29°45' W 095°06'1 3.6
2018-Apr-20 18:30N 29°46' W 095°05'1 2.0
2018-Apr-20 17:55N 29°47' W 095°06'1 2.7
2018-Apr-20 17:30N 29°46' W 095°05'1 0.4
2018-Apr-20 15:24N 29°46' W 095°06'1 1.3
2018-Apr-20 14:57N 29°46' W 095°06'2 5.4
2018-Apr-20 14:30N 29°44' W 095°03'3 5.9
2018-Apr-20 14:01N 29°42' W 095°01'3 5.7
2018-Apr-20 13:30N 29°41' W 094°58'2 4.1
2018-Apr-20 13:00N 29°41' W 094°56'1 2.0
2018-Apr-20 12:26N 29°42' W 094°56'1 2.3
2018-Apr-20 12:00N 29°43' W 094°56'1 2.4
2018-Apr-20 11:30N 29°44' W 094°56'2 3.6
2018-Apr-20 10:58N 29°46' W 094°55'1 1.9
2018-Apr-20 10:26N 29°45' W 094°56'2 4.0
2018-Apr-20 09:58N 29°43' W 094°56'2 2.9
2018-Apr-20 09:26N 29°42' W 094°55'2 3.5
2018-Apr-20 09:00N 29°41' W 094°57'3 6.5
2018-Apr-20 08:30N 29°42' W 095°00'4 7.6
2018-Apr-20 08:00N 29°45' W 095°04'3 5.9
2018-Apr-20 07:30N 29°44' W 095°07'7 3.8
2018-Apr-20 05:46N 29°43' W 095°15'3 6.7
2018-Apr-20 05:18N 29°45' W 095°11'2 6.4
2018-Apr-20 05:00N 29°44' W 095°09'3 6.4
2018-Apr-20 04:28N 29°45' W 095°06'1 1.0
2018-Apr-20 03:34N 29°46' W 095°06'0 0.2
2018-Apr-20 03:30N 29°46' W 095°06'2 4.3
2018-Apr-20 02:59N 29°45' W 095°04'3 6.7
2018-Apr-20 02:31N 29°43' W 095°01'3 5.8
2018-Apr-20 02:01N 29°41' W 094°58'2 4.6
2018-Apr-20 01:30N 29°40' W 094°56'1 2.9
2018-Apr-20 01:00N 29°42' W 094°55'1 1.9
2018-Apr-20 00:31N 29°43' W 094°56'1 2.0
2018-Apr-20 00:01N 29°44' W 094°56'2 3.5
2018-Apr-19 23:30N 29°45' W 094°55'1 0.1
2018-Apr-19 17:42N 29°46' W 094°55'0 0.0
2018-Apr-19 13:00N 29°46' W 094°55'0 0.0
2018-Apr-19 11:21N 29°46' W 094°55'1 2.5
2018-Apr-19 10:52N 29°45' W 094°56'2 4.2
2018-Apr-19 10:30N 29°43' W 094°57'1 1.2
2018-Apr-19 09:57N 29°43' W 094°56'1 1.9
2018-Apr-19 09:30N 29°42' W 094°56'1 1.9
2018-Apr-19 09:00N 29°41' W 094°55'1 2.0
2018-Apr-19 08:30N 29°40' W 094°56'2 4.4
2018-Apr-19 07:56N 29°41' W 094°59'0 0.4
2018-Apr-19 07:30N 29°41' W 094°59'1 2.2
2018-Apr-19 07:00N 29°42' W 094°60'5 6.9
2018-Apr-19 06:20N 29°45' W 095°04'2 3.6
2018-Apr-19 05:40N 29°46' W 095°06'0 0.1
2018-Apr-19 01:20N 29°46' W 095°06'2 3.8
2018-Apr-19 00:50N 29°44' W 095°07'2 7.6
2018-Apr-19 00:30N 29°44' W 095°09'2 3.2
2018-Apr-18 23:56N 29°46' W 095°11'1 2.6
2018-Apr-18 23:29N 29°45' W 095°10'2 3.7
2018-Apr-18 23:00N 29°44' W 095°08'3 6.3
2018-Apr-18 22:30N 29°46' W 095°05'1 0.9
2018-Apr-18 21:54N 29°46' W 095°06'1 3.2
2018-Apr-18 21:30N 29°46' W 095°05'3 5.9
2018-Apr-18 21:00N 29°44' W 095°02'3 5.4
2018-Apr-18 20:30N 29°42' W 094°60'3 5.7
2018-Apr-18 20:00N 29°39' W 094°58'3 6.3
2018-Apr-18 19:30N 29°36' W 094°57'3 6.3
2018-Apr-18 19:00N 29°34' W 094°55'3 6.2
2018-Apr-18 18:30N 29°31' W 094°53'3 6.1
2018-Apr-18 18:00N 29°29' W 094°51'3 6.2
2018-Apr-18 17:30N 29°26' W 094°50'6 5.1
2018-Apr-18 16:23N 29°20' W 094°50'3 6.1
2018-Apr-18 15:52N 29°18' W 094°53'2 5.0
2018-Apr-18 15:30N 29°17' W 094°55'3 5.4
2018-Apr-18 14:54N 29°17' W 094°59'2 5.3
2018-Apr-18 14:30N 29°15' W 095°00'3 5.1
2018-Apr-18 13:58N 29°13' W 095°02'1 2.6
2018-Apr-18 13:30N 29°12' W 095°03'3 5.3
2018-Apr-18 12:57N 29°11' W 095°06'2 4.4
2018-Apr-18 12:30N 29°10' W 095°08'2 4.2
2018-Apr-18 12:00N 29°12' W 095°10'2 4.3
2018-Apr-18 11:30N 29°13' W 095°12'2 3.2
2018-Apr-18 10:57N 29°14' W 095°13'0 0.0
2018-Apr-18 10:14N 29°14' W 095°13'0 0.1
2018-Apr-18 09:47N 29°14' W 095°13'1 0.4
2018-Apr-18 08:06N 29°13' W 095°13'1 4.5
2018-Apr-18 07:57N 29°13' W 095°13'2 4.4
2018-Apr-18 07:30N 29°12' W 095°11'2 4.2
2018-Apr-18 07:00N 29°11' W 095°09'2 3.4
2018-Apr-18 06:30N 29°09' W 095°09'7 4.8
2018-Apr-18 05:04N 29°04' W 095°13'0 4.8
2018-Apr-18 05:00N 29°03' W 095°13'2 4.6
2018-Apr-18 04:30N 29°01' W 095°14'3 5.1
2018-Apr-18 03:59N 28°59' W 095°16'2 4.9
2018-Apr-18 03:30N 28°57' W 095°18'3 5.3
2018-Apr-18 03:00N 28°55' W 095°20'2 4.5
2018-Apr-18 02:30N 28°54' W 095°22'1 2.2
2018-Apr-18 01:59N 28°54' W 095°23'1 1.2
2018-Apr-18 01:30N 28°54' W 095°24'1 2.1
2018-Apr-18 01:00N 28°53' W 095°25'1 1.1
2018-Apr-18 00:30N 28°53' W 095°25'3 5.4
2018-Apr-17 23:56N 28°52' W 095°29'2 5.6
2018-Apr-17 23:30N 28°50' W 095°31'3 5.3
2018-Apr-17 22:52N 28°48' W 095°34'  
2018-Apr-15 16:01N 29°28' W 094°51'0 9.4
2018-Apr-15 16:00N 29°28' W 094°51'4 8.5
2018-Apr-15 15:30N 29°32' W 094°54'4 7.7
2018-Apr-15 15:00N 29°35' W 094°56'4 7.7
2018-Apr-15 14:30N 29°39' W 094°58'4 8.0
2018-Apr-15 14:00N 29°42' W 095°00'4 6.9
2018-Apr-15 13:30N 29°44' W 095°03'3 6.2
2018-Apr-15 13:00N 29°46' W 095°06'0 0.0
2018-Apr-15 12:30N 29°46' W 095°06'0 0.0
2018-Apr-15 12:00N 29°46' W 095°06'0 0.0
2018-Apr-15 11:09N 29°46' W 095°06'0 1.3
2018-Apr-15 11:00N 29°46' W 095°06'0 0.0
2018-Apr-15 06:45N 29°46' W 095°06'1 3.1
2018-Apr-15 06:30N 29°46' W 095°05'2 3.4
2018-Apr-15 06:00N 29°45' W 095°04'3 6.0
2018-Apr-15 05:30N 29°43' W 095°01'3 6.7
2018-Apr-15 05:00N 29°40' W 094°59'4 7.8
2018-Apr-15 04:30N 29°37' W 094°57'4 8.1
2018-Apr-15 04:00N 29°33' W 094°55'4 7.5
2018-Apr-15 03:30N 29°30' W 094°52'4 7.3
2018-Apr-15 03:00N 29°27' W 094°50'4 7.0
2018-Apr-15 02:28N 29°23' W 094°49'4 0.3
2018-Apr-14 15:42N 29°27' W 094°51'2 9.5
2018-Apr-14 15:30N 29°28' W 094°51'4 8.8
2018-Apr-14 15:00N 29°32' W 094°54'4 8.0
2018-Apr-14 14:30N 29°35' W 094°57'4 7.9
2018-Apr-14 14:00N 29°39' W 094°58'4 8.0
2018-Apr-14 13:30N 29°42' W 095°01'4 7.3
2018-Apr-14 13:00N 29°45' W 095°04'2 3.8
2018-Apr-14 12:25N 29°46' W 095°06'0 0.2
2018-Apr-14 11:39N 29°46' W 095°06'0 0.0
2018-Apr-14 01:04N 29°47' W 095°06'1 3.5
2018-Apr-14 00:46N 29°46' W 095°05'2 6.9
2018-Apr-14 00:26N 29°44' W 095°07'3 6.8
2018-Apr-13 23:57N 29°45' W 095°11'4 6.4
2018-Apr-13 23:21N 29°43' W 095°15'1 0.1
2018-Apr-13 18:29N 29°43' W 095°16'0 0.0
2018-Apr-13 13:43N 29°43' W 095°16'0 0.0
2018-Apr-13 08:44N 29°43' W 095°16'0 0.0
2018-Apr-13 08:30N 29°43' W 095°16'0 0.0
2018-Apr-13 07:54N 29°43' W 095°16'0 0.0
2018-Apr-13 07:26N 29°43' W 095°16'0 0.0
2018-Apr-13 06:56N 29°43' W 095°16'0 0.0
2018-Apr-13 06:28N 29°43' W 095°16'0 0.0
2018-Apr-13 06:00N 29°43' W 095°16'0 0.0
2018-Apr-13 05:30N 29°43' W 095°16'0 0.0
2018-Apr-13 04:57N 29°43' W 095°16'0 0.0
2018-Apr-13 04:30N 29°43' W 095°16'0 0.0
2018-Apr-13 03:59N 29°43' W 095°16'0 0.0
2018-Apr-13 03:30N 29°43' W 095°16'0 0.0
2018-Apr-13 02:57N 29°43' W 095°16'0 0.0
2018-Apr-13 02:30N 29°43' W 095°16'0 0.0
2018-Apr-13 01:58N 29°43' W 095°16'0 0.0
2018-Apr-13 01:27N 29°43' W 095°16'0 0.1
2018-Apr-13 00:39N 29°44' W 095°16'0 0.4
2018-Apr-13 00:29N 29°43' W 095°16'0 0.1
2018-Apr-12 23:51N 29°44' W 095°16'2 4.3
2018-Apr-12 23:21N 29°44' W 095°14'2 5.0
2018-Apr-12 22:56N 29°45' W 095°11'2 5.3
2018-Apr-12 22:30N 29°44' W 095°09'3 5.3
2018-Apr-12 22:00N 29°45' W 095°06'1 2.3
2018-Apr-12 21:30N 29°46' W 095°06'1 0.7
2018-Apr-12 20:46N 29°47' W 095°06'0 0.0
2018-Apr-12 20:04N 29°47' W 095°06'0 4.9
2018-Apr-12 20:00N 29°46' W 095°06'0 0.0
2018-Apr-12 18:34N 29°46' W 095°06'0 0.0
2018-Apr-12 16:23N 29°46' W 095°06'0 0.0
2018-Apr-12 15:23N 29°46' W 095°06'0 0.0
2018-Apr-12 15:00N 29°46' W 095°06'0 0.2
2018-Apr-12 14:24N 29°46' W 095°06'0 0.0
2018-Apr-12 13:59N 29°46' W 095°06'0 0.0
2018-Apr-12 13:27N 29°46' W 095°06'0 0.1
2018-Apr-12 13:00N 29°46' W 095°06'0 0.1
2018-Apr-12 12:30N 29°46' W 095°06'1 1.5
2018-Apr-12 12:00N 29°47' W 095°06'0 0.0
2018-Apr-12 11:30N 29°47' W 095°06'0 0.0
2018-Apr-12 11:00N 29°47' W 095°06'0 0.0
2018-Apr-12 10:30N 29°47' W 095°06'0 0.0
2018-Apr-12 10:00N 29°47' W 095°06'0 0.0
2018-Apr-12 09:29N 29°47' W 095°06'0 0.0
2018-Apr-12 09:00N 29°47' W 095°06'0 0.0
2018-Apr-12 08:30N 29°47' W 095°06'0 0.0
2018-Apr-12 08:00N 29°47' W 095°06'0 0.0
2018-Apr-12 07:30N 29°47' W 095°06'0 0.0
2018-Apr-12 07:00N 29°47' W 095°06'0 0.0
2018-Apr-12 06:29N 29°47' W 095°06'0 0.0
2018-Apr-12 06:00N 29°47' W 095°06'0 0.0
2018-Apr-12 05:30N 29°47' W 095°06'0 0.0
2018-Apr-12 05:00N 29°47' W 095°06'0 0.0
2018-Apr-12 04:30N 29°47' W 095°06'0 0.0
2018-Apr-12 04:00N 29°47' W 095°06'0 0.0
2018-Apr-12 03:30N 29°47' W 095°06'0 0.0
2018-Apr-12 03:00N 29°47' W 095°06'0 0.0
2018-Apr-12 02:30N 29°47' W 095°06'0 0.0
2018-Apr-12 02:00N 29°47' W 095°06'0 0.5
2018-Apr-12 01:22N 29°47' W 095°06'1 3.5
2018-Apr-12 01:00N 29°45' W 095°06'1 0.3
2018-Apr-11 22:56N 29°45' W 095°06'1 2.7
2018-Apr-11 22:26N 29°46' W 095°06'0 0.0
2018-Apr-11 21:52N 29°46' W 095°06'0 0.0
2018-Apr-11 21:08N 29°46' W 095°06'0 0.0
2018-Apr-11 20:56N 29°46' W 095°06'0 0.0
2018-Apr-11 20:29N 29°46' W 095°06'0 0.0
2018-Apr-11 20:00N 29°46' W 095°06'0 0.1
2018-Apr-11 19:23N 29°46' W 095°06'0 0.2
2018-Apr-11 19:00N 29°46' W 095°06'0 0.0
2018-Apr-11 17:58N 29°46' W 095°06'0 0.0
2018-Apr-11 17:30N 29°46' W 095°06'0 0.0
2018-Apr-11 16:58N 29°46' W 095°06'0 0.0
2018-Apr-11 16:26N 29°46' W 095°06'0 0.0
2018-Apr-11 15:50N 29°46' W 095°06'0 1.2
2018-Apr-11 15:30N 29°46' W 095°06'1 2.4
2018-Apr-11 15:00N 29°45' W 095°06'0 0.0
2018-Apr-11 14:17N 29°45' W 095°06'0 0.4
2018-Apr-11 13:56N 29°45' W 095°06'1 2.9
2018-Apr-11 13:29N 29°46' W 095°06'0 0.3
2018-Apr-11 12:59N 29°46' W 095°06'1 1.4
2018-Apr-11 12:30N 29°47' W 095°06'0 0.0
2018-Apr-11 12:00N 29°47' W 095°06'0 0.0
2018-Apr-11 11:28N 29°47' W 095°06'0 0.0
2018-Apr-11 11:00N 29°47' W 095°06'0 0.0
2018-Apr-11 10:05N 29°47' W 095°06'0 0.0
2018-Apr-11 09:59N 29°47' W 095°06'0 0.0
2018-Apr-11 09:00N 29°47' W 095°06'0 0.0
2018-Apr-11 08:27N 29°47' W 095°06'0 0.0
2018-Apr-11 08:00N 29°47' W 095°06'0 0.0
2018-Apr-11 07:30N 29°47' W 095°06'0 0.0
2018-Apr-11 06:59N 29°47' W 095°06'0 0.0
2018-Apr-11 06:29N 29°47' W 095°06'  
Track history (hours):
 
Tides and Currents Weather Stations Pressure Air Temp Water Temp Dewpoint Dewpoint Depression Visibility Wind Speed Wind Dir Waves Ship Positions

Sandra J Banta

Owner: Chem Carriers Towing, LLC, Sunshine, LA. More information available from US FCC via Universal Licensing System and Coast Guard Vessel Documentation Center.

Last reported at 2018-Apr-21 06:07 UTC. Time now 2018-Apr-21 07:55 UTC.
Position N 29°13' W 095°02'.

MMSI: 367439810.

Date/timePositionNaut miles runAvg speedWind from/ knotsBaromVisibWave heightAir tempDewpointWater temp
2018-Apr-21 06:07N 29°13' W 095°02'2 6.1
2018-Apr-21 05:49N 29°15' W 095°01'7 5.6
2018-Apr-21 04:35N 29°17' W 094°53'6 7.4
2018-Apr-21 03:44N 29°22' W 094°48'2 8.1
2018-Apr-21 03:30N 29°24' W 094°49'4 7.8
2018-Apr-21 02:58N 29°27' W 094°51'3 7.2
2018-Apr-21 02:30N 29°30' W 094°53'3 6.8
2018-Apr-21 02:00N 29°33' W 094°55'4 7.2
2018-Apr-21 01:30N 29°36' W 094°57'4 7.6
2018-Apr-21 01:01N 29°40' W 094°59'4 7.3
2018-Apr-21 00:31N 29°43' W 095°01'3 6.8
2018-Apr-21 00:00N 29°45' W 095°04'2 4.9
2018-Apr-20 23:30N 29°47' W 095°06'0 0.2
2018-Apr-20 22:57N 29°47' W 095°06'1 2.5
2018-Apr-20 22:30N 29°46' W 095°06'0 0.0
2018-Apr-20 22:01N 29°46' W 095°06'0 0.0
2018-Apr-20 21:30N 29°46' W 095°06'0 0.0
2018-Apr-20 21:01N 29°46' W 095°06'0 0.0
2018-Apr-20 20:30N 29°46' W 095°06'1 0.6
2018-Apr-20 18:48N 29°45' W 095°06'1 3.6
2018-Apr-20 18:30N 29°46' W 095°05'1 2.0
2018-Apr-20 17:55N 29°47' W 095°06'1 2.7
2018-Apr-20 17:30N 29°46' W 095°05'1 0.4
2018-Apr-20 15:24N 29°46' W 095°06'1 1.3
2018-Apr-20 14:57N 29°46' W 095°06'2 5.4
2018-Apr-20 14:30N 29°44' W 095°03'3 5.9
2018-Apr-20 14:01N 29°42' W 095°01'3 5.7
2018-Apr-20 13:30N 29°41' W 094°58'2 4.1
2018-Apr-20 13:00N 29°41' W 094°56'1 2.0
2018-Apr-20 12:26N 29°42' W 094°56'1 2.3
2018-Apr-20 12:00N 29°43' W 094°56'1 2.4
2018-Apr-20 11:30N 29°44' W 094°56'2 3.6
2018-Apr-20 10:58N 29°46' W 094°55'1 1.9
2018-Apr-20 10:26N 29°45' W 094°56'2 4.0
2018-Apr-20 09:58N 29°43' W 094°56'2 2.9
2018-Apr-20 09:26N 29°42' W 094°55'2 3.5
2018-Apr-20 09:00N 29°41' W 094°57'3 6.5
2018-Apr-20 08:30N 29°42' W 095°00'4 7.6
2018-Apr-20 08:00N 29°45' W 095°04'3 5.9
2018-Apr-20 07:30N 29°44' W 095°07'7 3.8
2018-Apr-20 05:46N 29°43' W 095°15'3 6.7
2018-Apr-20 05:18N 29°45' W 095°11'2 6.4
2018-Apr-20 05:00N 29°44' W 095°09'3 6.4
2018-Apr-20 04:28N 29°45' W 095°06'1 1.0
2018-Apr-20 03:34N 29°46' W 095°06'0 0.2
2018-Apr-20 03:30N 29°46' W 095°06'2 4.3
2018-Apr-20 02:59N 29°45' W 095°04'3 6.7
2018-Apr-20 02:31N 29°43' W 095°01'3 5.8
2018-Apr-20 02:01N 29°41' W 094°58'2 4.6
2018-Apr-20 01:30N 29°40' W 094°56'1 2.9
2018-Apr-20 01:00N 29°42' W 094°55'1 1.9
2018-Apr-20 00:31N 29°43' W 094°56'1 2.0
2018-Apr-20 00:01N 29°44' W 094°56'2 3.5
2018-Apr-19 23:30N 29°45' W 094°55'1 0.1
2018-Apr-19 17:42N 29°46' W 094°55'0 0.0
2018-Apr-19 13:00N 29°46' W 094°55'0 0.0
2018-Apr-19 11:21N 29°46' W 094°55'1 2.5
2018-Apr-19 10:52N 29°45' W 094°56'2 4.2
2018-Apr-19 10:30N 29°43' W 094°57'1 1.2
2018-Apr-19 09:57N 29°43' W 094°56'1 1.9
2018-Apr-19 09:30N 29°42' W 094°56'1 1.9
2018-Apr-19 09:00N 29°41' W 094°55'1 2.0
2018-Apr-19 08:30N 29°40' W 094°56'2 4.4
2018-Apr-19 07:56N 29°41' W 094°59'0 0.4
2018-Apr-19 07:30N 29°41' W 094°59'1 2.2
2018-Apr-19 07:00N 29°42' W 094°60'5 6.9
2018-Apr-19 06:20N 29°45' W 095°04'2 3.6
2018-Apr-19 05:40N 29°46' W 095°06'0 0.1
2018-Apr-19 01:20N 29°46' W 095°06'2 3.8
2018-Apr-19 00:50N 29°44' W 095°07'2 7.6
2018-Apr-19 00:30N 29°44' W 095°09'2 3.2
2018-Apr-18 23:56N 29°46' W 095°11'1 2.6
2018-Apr-18 23:29N 29°45' W 095°10'2 3.7
2018-Apr-18 23:00N 29°44' W 095°08'3 6.3
2018-Apr-18 22:30N 29°46' W 095°05'1 0.9
2018-Apr-18 21:54N 29°46' W 095°06'1 3.2
2018-Apr-18 21:30N 29°46' W 095°05'3 5.9
2018-Apr-18 21:00N 29°44' W 095°02'3 5.4
2018-Apr-18 20:30N 29°42' W 094°60'3 5.7
2018-Apr-18 20:00N 29°39' W 094°58'3 6.3
2018-Apr-18 19:30N 29°36' W 094°57'3 6.3
2018-Apr-18 19:00N 29°34' W 094°55'3 6.2
2018-Apr-18 18:30N 29°31' W 094°53'3 6.1
2018-Apr-18 18:00N 29°29' W 094°51'3 6.2
2018-Apr-18 17:30N 29°26' W 094°50'6 5.1
2018-Apr-18 16:23N 29°20' W 094°50'3 6.1
2018-Apr-18 15:52N 29°18' W 094°53'2 5.0
2018-Apr-18 15:30N 29°17' W 094°55'3 5.4
2018-Apr-18 14:54N 29°17' W 094°59'2 5.3
2018-Apr-18 14:30N 29°15' W 095°00'3 5.1
2018-Apr-18 13:58N 29°13' W 095°02'1 2.6
2018-Apr-18 13:30N 29°12' W 095°03'3 5.3
2018-Apr-18 12:57N 29°11' W 095°06'2 4.4
2018-Apr-18 12:30N 29°10' W 095°08'2 4.2
2018-Apr-18 12:00N 29°12' W 095°10'2 4.3
2018-Apr-18 11:30N 29°13' W 095°12'2 3.2
2018-Apr-18 10:57N 29°14' W 095°13'0 0.0
2018-Apr-18 10:14N 29°14' W 095°13'0 0.1
2018-Apr-18 09:47N 29°14' W 095°13'1 0.4
2018-Apr-18 08:06N 29°13' W 095°13'1 4.5
2018-Apr-18 07:57N 29°13' W 095°13'2 4.4
2018-Apr-18 07:30N 29°12' W 095°11'2 4.2
2018-Apr-18 07:00N 29°11' W 095°09'2 3.4
2018-Apr-18 06:30N 29°09' W 095°09'7 4.8
2018-Apr-18 05:04N 29°04' W 095°13'0 4.8
2018-Apr-18 05:00N 29°03' W 095°13'2 4.6
2018-Apr-18 04:30N 29°01' W 095°14'3 5.1
2018-Apr-18 03:59N 28°59' W 095°16'2 4.9
2018-Apr-18 03:30N 28°57' W 095°18'3 5.3
2018-Apr-18 03:00N 28°55' W 095°20'2 4.5
2018-Apr-18 02:30N 28°54' W 095°22'1 2.2
2018-Apr-18 01:59N 28°54' W 095°23'1 1.2
2018-Apr-18 01:30N 28°54' W 095°24'1 2.1
2018-Apr-18 01:00N 28°53' W 095°25'1 1.1
2018-Apr-18 00:30N 28°53' W 095°25'3 5.4
2018-Apr-17 23:56N 28°52' W 095°29'2 5.6
2018-Apr-17 23:30N 28°50' W 095°31'3 5.3
2018-Apr-17 22:52N 28°48' W 095°34'  
2018-Apr-15 16:01N 29°28' W 094°51'0 9.4
2018-Apr-15 16:00N 29°28' W 094°51'4 8.5
2018-Apr-15 15:30N 29°32' W 094°54'4 7.7
2018-Apr-15 15:00N 29°35' W 094°56'4 7.7
2018-Apr-15 14:30N 29°39' W 094°58'4 8.0
2018-Apr-15 14:00N 29°42' W 095°00'4 6.9
2018-Apr-15 13:30N 29°44' W 095°03'3 6.2
2018-Apr-15 13:00N 29°46' W 095°06'0 0.0
2018-Apr-15 12:30N 29°46' W 095°06'0 0.0
2018-Apr-15 12:00N 29°46' W 095°06'0 0.0
2018-Apr-15 11:09N 29°46' W 095°06'0 1.3
2018-Apr-15 11:00N 29°46' W 095°06'0 0.0
2018-Apr-15 06:45N 29°46' W 095°06'1 3.1
2018-Apr-15 06:30N 29°46' W 095°05'2 3.4
2018-Apr-15 06:00N 29°45' W 095°04'3 6.0
2018-Apr-15 05:30N 29°43' W 095°01'3 6.7
2018-Apr-15 05:00N 29°40' W 094°59'4 7.8
2018-Apr-15 04:30N 29°37' W 094°57'4 8.1
2018-Apr-15 04:00N 29°33' W 094°55'4 7.5
2018-Apr-15 03:30N 29°30' W 094°52'4 7.3
2018-Apr-15 03:00N 29°27' W 094°50'4 7.0
2018-Apr-15 02:28N 29°23' W 094°49'4 0.3
2018-Apr-14 15:42N 29°27' W 094°51'2 9.5
2018-Apr-14 15:30N 29°28' W 094°51'4 8.8
2018-Apr-14 15:00N 29°32' W 094°54'4 8.0
2018-Apr-14 14:30N 29°35' W 094°57'4 7.9
2018-Apr-14 14:00N 29°39' W 094°58'4 8.0
2018-Apr-14 13:30N 29°42' W 095°01'4 7.3
2018-Apr-14 13:00N 29°45' W 095°04'2 3.8
2018-Apr-14 12:25N 29°46' W 095°06'0 0.2
2018-Apr-14 11:39N 29°46' W 095°06'0 0.0
2018-Apr-14 01:04N 29°47' W 095°06'1 3.5
2018-Apr-14 00:46N 29°46' W 095°05'2 6.9
2018-Apr-14 00:26N 29°44' W 095°07'3 6.8
2018-Apr-13 23:57N 29°45' W 095°11'4 6.4
2018-Apr-13 23:21N 29°43' W 095°15'1 0.1
2018-Apr-13 18:29N 29°43' W 095°16'0 0.0
2018-Apr-13 13:43N 29°43' W 095°16'0 0.0
2018-Apr-13 08:44N 29°43' W 095°16'0 0.0
2018-Apr-13 08:30N 29°43' W 095°16'0 0.0
2018-Apr-13 07:54N 29°43' W 095°16'0 0.0
2018-Apr-13 07:26N 29°43' W 095°16'0 0.0
2018-Apr-13 06:56N 29°43' W 095°16'0 0.0
2018-Apr-13 06:28N 29°43' W 095°16'0 0.0
2018-Apr-13 06:00N 29°43' W 095°16'0 0.0
2018-Apr-13 05:30N 29°43' W 095°16'0 0.0
2018-Apr-13 04:57N 29°43' W 095°16'0 0.0
2018-Apr-13 04:30N 29°43' W 095°16'0 0.0
2018-Apr-13 03:59N 29°43' W 095°16'0 0.0
2018-Apr-13 03:30N 29°43' W 095°16'0 0.0
2018-Apr-13 02:57N 29°43' W 095°16'0 0.0
2018-Apr-13 02:30N 29°43' W 095°16'0 0.0
2018-Apr-13 01:58N 29°43' W 095°16'0 0.0
2018-Apr-13 01:27N 29°43' W 095°16'0 0.1
2018-Apr-13 00:39N 29°44' W 095°16'0 0.4
2018-Apr-13 00:29N 29°43' W 095°16'0 0.1
2018-Apr-12 23:51N 29°44' W 095°16'2 4.3
2018-Apr-12 23:21N 29°44' W 095°14'2 5.0
2018-Apr-12 22:56N 29°45' W 095°11'2 5.3
2018-Apr-12 22:30N 29°44' W 095°09'3 5.3
2018-Apr-12 22:00N 29°45' W 095°06'1 2.3
2018-Apr-12 21:30N 29°46' W 095°06'1 0.7
2018-Apr-12 20:46N 29°47' W 095°06'0 0.0
2018-Apr-12 20:04N 29°47' W 095°06'0 4.9
2018-Apr-12 20:00N 29°46' W 095°06'0 0.0
2018-Apr-12 18:34N 29°46' W 095°06'0 0.0
2018-Apr-12 16:23N 29°46' W 095°06'0 0.0
2018-Apr-12 15:23N 29°46' W 095°06'0 0.0
2018-Apr-12 15:00N 29°46' W 095°06'0 0.2
2018-Apr-12 14:24N 29°46' W 095°06'0 0.0
2018-Apr-12 13:59N 29°46' W 095°06'0 0.0
2018-Apr-12 13:27N 29°46' W 095°06'0 0.1
2018-Apr-12 13:00N 29°46' W 095°06'0 0.1
2018-Apr-12 12:30N 29°46' W 095°06'1 1.5
2018-Apr-12 12:00N 29°47' W 095°06'0 0.0
2018-Apr-12 11:30N 29°47' W 095°06'0 0.0
2018-Apr-12 11:00N 29°47' W 095°06'0 0.0
2018-Apr-12 10:30N 29°47' W 095°06'0 0.0
2018-Apr-12 10:00N 29°47' W 095°06'0 0.0
2018-Apr-12 09:29N 29°47' W 095°06'0 0.0
2018-Apr-12 09:00N 29°47' W 095°06'0 0.0
2018-Apr-12 08:30N 29°47' W 095°06'0 0.0
2018-Apr-12 08:00N 29°47' W 095°06'0 0.0
2018-Apr-12 07:30N 29°47' W 095°06'0 0.0
2018-Apr-12 07:00N 29°47' W 095°06'0 0.0
2018-Apr-12 06:29N 29°47' W 095°06'0 0.0
2018-Apr-12 06:00N 29°47' W 095°06'0 0.0
2018-Apr-12 05:30N 29°47' W 095°06'0 0.0
2018-Apr-12 05:00N 29°47' W 095°06'0 0.0
2018-Apr-12 04:30N 29°47' W 095°06'0 0.0
2018-Apr-12 04:00N 29°47' W 095°06'0 0.0
2018-Apr-12 03:30N 29°47' W 095°06'0 0.0
2018-Apr-12 03:00N 29°47' W 095°06'0 0.0
2018-Apr-12 02:30N 29°47' W 095°06'0 0.0
2018-Apr-12 02:00N 29°47' W 095°06'0 0.5
2018-Apr-12 01:22N 29°47' W 095°06'1 3.5
2018-Apr-12 01:00N 29°45' W 095°06'1 0.3
2018-Apr-11 22:56N 29°45' W 095°06'1 2.7
2018-Apr-11 22:26N 29°46' W 095°06'0 0.0
2018-Apr-11 21:52N 29°46' W 095°06'0 0.0
2018-Apr-11 21:08N 29°46' W 095°06'0 0.0
2018-Apr-11 20:56N 29°46' W 095°06'0 0.0
2018-Apr-11 20:29N 29°46' W 095°06'0 0.0
2018-Apr-11 20:00N 29°46' W 095°06'0 0.1
2018-Apr-11 19:23N 29°46' W 095°06'0 0.2
2018-Apr-11 19:00N 29°46' W 095°06'0 0.0
2018-Apr-11 17:58N 29°46' W 095°06'0 0.0
2018-Apr-11 17:30N 29°46' W 095°06'0 0.0
2018-Apr-11 16:58N 29°46' W 095°06'0 0.0
2018-Apr-11 16:26N 29°46' W 095°06'0 0.0
2018-Apr-11 15:50N 29°46' W 095°06'0 1.2
2018-Apr-11 15:30N 29°46' W 095°06'1 2.4
2018-Apr-11 15:00N 29°45' W 095°06'0 0.0
2018-Apr-11 14:17N 29°45' W 095°06'0 0.4
2018-Apr-11 13:56N 29°45' W 095°06'1 2.9
2018-Apr-11 13:29N 29°46' W 095°06'0 0.3
2018-Apr-11 12:59N 29°46' W 095°06'1 1.4
2018-Apr-11 12:30N 29°47' W 095°06'0 0.0
2018-Apr-11 12:00N 29°47' W 095°06'0 0.0
2018-Apr-11 11:28N 29°47' W 095°06'0 0.0
2018-Apr-11 11:00N 29°47' W 095°06'0 0.0
2018-Apr-11 10:05N 29°47' W 095°06'0 0.0
2018-Apr-11 09:59N 29°47' W 095°06'0 0.0
2018-Apr-11 09:00N 29°47' W 095°06'0 0.0
2018-Apr-11 08:27N 29°47' W 095°06'0 0.0
2018-Apr-11 08:00N 29°47' W 095°06'0 0.0
2018-Apr-11 07:30N 29°47' W 095°06'0 0.0
2018-Apr-11 06:59N 29°47' W 095°06'0 0.0
2018-Apr-11 06:29N 29°47' W 095°06'  

Dump ship's entire track history